createdAt,value
2018-01-11T00:01:06.961Z,10.08
2018-01-11T00:03:35.361Z,10.07
2018-01-11T00:06:03.671Z,10.06
2018-01-11T00:08:31.999Z,10.07
2018-01-11T00:11:00.329Z,10.08
2018-01-11T00:13:29.389Z,10.10
2018-01-11T00:15:58.487Z,10.11
2018-01-11T00:18:27.827Z,10.11
2018-01-11T00:20:56.140Z,10.10
2018-01-11T00:23:24.488Z,10.10
2018-01-11T00:25:52.819Z,10.11
2018-01-11T00:28:21.129Z,10.09
2018-01-11T00:30:50.195Z,10.10
2018-01-11T00:33:18.529Z,10.11
2018-01-11T00:35:46.877Z,10.10
2018-01-11T00:38:15.190Z,10.06
2018-01-11T00:40:43.521Z,10.05
2018-01-11T00:43:12.563Z,10.04
2018-01-11T00:45:41.637Z,10.03
2018-01-11T00:48:09.959Z,10.02
2018-01-11T00:50:38.295Z,10.03
2018-01-11T00:53:06.660Z,10.02
2018-01-11T00:55:35.015Z,10.01
2018-01-11T00:58:03.325Z,9.99
2018-01-11T01:00:31.665Z,9.96
2018-01-11T01:03:00.004Z,9.95
2018-01-11T01:05:28.316Z,9.91
2018-01-11T01:07:57.401Z,9.86
2018-01-11T01:10:25.727Z,9.81
2018-01-11T01:12:54.874Z,9.76
2018-01-11T01:15:23.199Z,9.71
2018-01-11T01:17:51.575Z,9.66
2018-01-11T01:20:19.888Z,9.66
2018-01-11T01:22:48.207Z,9.66
2018-01-11T01:25:16.556Z,9.67
2018-01-11T01:27:44.885Z,9.64
2018-01-11T01:30:13.949Z,9.65
2018-01-11T01:32:42.285Z,9.67
2018-01-11T01:35:10.624Z,9.71
2018-01-11T01:37:38.943Z,9.74
2018-01-11T01:40:07.329Z,9.74
2018-01-11T01:42:35.662Z,9.73
2018-01-11T01:45:03.969Z,9.73
2018-01-11T01:47:32.510Z,9.73
2018-01-11T01:50:00.829Z,9.75
2018-01-11T01:52:29.140Z,9.78
2018-01-11T01:54:57.449Z,9.80
2018-01-11T01:57:25.792Z,9.82
2018-01-11T01:59:54.876Z,9.84
2018-01-11T02:02:23.962Z,9.88
2018-01-11T02:04:52.272Z,9.90
2018-01-11T02:07:21.345Z,9.92
2018-01-11T02:09:49.666Z,9.94
2018-01-11T02:12:18.002Z,9.96
2018-01-11T02:14:46.325Z,9.95
2018-01-11T02:17:14.694Z,9.94
2018-01-11T02:19:43.772Z,9.94
2018-01-11T02:22:12.099Z,9.93
2018-01-11T02:24:40.432Z,9.92
2018-01-11T02:27:08.760Z,9.92
2018-01-11T02:29:37.873Z,9.91
2018-01-11T02:32:06.212Z,9.90
2018-01-11T02:34:34.548Z,9.90
2018-01-11T02:37:02.858Z,9.90
2018-01-11T02:39:31.169Z,9.91
2018-01-11T02:42:00.232Z,9.94
2018-01-11T02:44:28.550Z,9.94
2018-01-11T02:46:57.616Z,9.98
2018-01-11T02:49:25.938Z,10.00
2018-01-11T02:51:55.024Z,10.01
2018-01-11T02:54:24.102Z,10.01
2018-01-11T02:56:52.422Z,10.01
2018-01-11T02:59:20.744Z,10.03
2018-01-11T03:01:49.054Z,10.04
2018-01-11T03:04:17.386Z,10.04
2018-01-11T03:06:45.731Z,10.04
2018-01-11T03:09:14.060Z,10.06
2018-01-11T03:11:42.448Z,10.08
2018-01-11T03:14:10.794Z,10.08
2018-01-11T03:16:39.899Z,10.08
2018-01-11T03:19:08.244Z,10.08
2018-01-11T03:21:36.564Z,10.07
2018-01-11T03:24:04.880Z,10.07
2018-01-11T03:26:33.214Z,10.08
2018-01-11T03:29:02.333Z,10.09
2018-01-11T03:31:30.641Z,10.09
2018-01-11T03:33:58.956Z,10.09
2018-01-11T03:36:27.284Z,10.08
2018-01-11T03:38:55.600Z,10.09
2018-01-11T03:41:23.908Z,10.09
2018-01-11T03:43:52.238Z,10.08
2018-01-11T03:46:20.604Z,10.08
2018-01-11T03:48:48.924Z,10.07
2018-01-11T03:51:17.280Z,10.06
2018-01-11T03:53:45.575Z,10.06
2018-01-11T03:56:13.975Z,10.08
2018-01-11T03:58:42.284Z,10.09
2018-01-11T04:01:10.678Z,10.12
2018-01-11T04:03:39.754Z,10.12
2018-01-11T04:06:08.072Z,10.11
2018-01-11T04:08:37.148Z,10.08
2018-01-11T04:11:05.478Z,10.08
2018-01-11T04:13:33.774Z,10.08
2018-01-11T04:16:02.087Z,10.12
2018-01-11T04:18:30.404Z,10.14
2018-01-11T04:20:58.710Z,10.13
2018-01-11T04:23:27.024Z,10.14
2018-01-11T04:25:55.330Z,10.15
2018-01-11T04:28:24.412Z,10.15
2018-01-11T04:30:52.716Z,10.18
2018-01-11T04:33:21.808Z,10.19
2018-01-11T04:35:50.918Z,10.13
2018-01-11T04:38:20.038Z,10.14
2018-01-11T04:40:48.378Z,10.14
2018-01-11T04:43:16.704Z,10.14
2018-01-11T04:45:45.027Z,10.13
2018-01-11T04:48:13.352Z,10.12
2018-01-11T04:50:41.692Z,10.09
2018-01-11T04:53:10.049Z,10.09
2018-01-11T04:55:38.384Z,10.10
2018-01-11T04:58:07.505Z,10.08
2018-01-11T05:00:41.464Z,10.07
2018-01-11T05:03:09.786Z,10.09
2018-01-11T05:05:38.864Z,10.12
2018-01-11T05:08:07.180Z,10.13
2018-01-11T05:10:35.566Z,10.16
2018-01-11T05:13:03.916Z,10.16
2018-01-11T05:15:32.237Z,10.18
2018-01-11T05:18:00.563Z,10.21
2018-01-11T05:20:28.934Z,10.23
2018-01-11T05:22:57.300Z,10.24
2018-01-11T05:25:25.631Z,10.24
2018-01-11T05:27:53.976Z,10.25
2018-01-11T05:30:22.302Z,10.25
2018-01-11T05:32:51.396Z,10.24
2018-01-11T05:35:20.484Z,10.22
2018-01-11T05:37:48.812Z,10.18
2018-01-11T05:40:17.126Z,10.16
2018-01-11T05:42:45.592Z,10.12
2018-01-11T05:45:13.940Z,10.09
2018-01-11T05:47:43.018Z,10.08
2018-01-11T05:50:12.122Z,10.04
2018-01-11T05:52:41.192Z,10.04
2018-01-11T05:55:09.531Z,10.03
2018-01-11T05:57:37.858Z,10.03
2018-01-11T06:00:06.944Z,10.05
2018-01-11T06:02:35.272Z,10.08
2018-01-11T06:05:04.348Z,10.09
2018-01-11T06:07:32.700Z,10.09
2018-01-11T06:10:01.038Z,10.11
2018-01-11T06:12:30.126Z,10.08
2018-01-11T06:14:58.444Z,10.08
2018-01-11T06:17:26.746Z,10.07
2018-01-11T06:19:55.070Z,10.07
2018-01-11T06:22:24.147Z,10.05
2018-01-11T06:24:53.178Z,10.03
2018-01-11T06:27:22.272Z,10.02
2018-01-11T06:29:51.365Z,10.02
2018-01-11T06:32:19.678Z,10.04
2018-01-11T06:34:48.036Z,10.02
2018-01-11T06:37:17.158Z,10.02
2018-01-11T06:39:45.494Z,10.02
2018-01-11T06:42:13.983Z,10.02
2018-01-11T06:44:42.404Z,10.00
2018-01-11T06:47:11.546Z,9.96
2018-01-11T06:49:39.852Z,9.95
2018-01-11T06:52:08.191Z,9.92
2018-01-11T06:54:36.513Z,9.90
2018-01-11T06:57:04.839Z,9.88
2018-01-11T06:59:33.178Z,9.88
2018-01-11T07:02:01.554Z,9.85
2018-01-11T07:04:30.002Z,9.85
2018-01-11T07:06:58.530Z,9.81
2018-01-11T07:09:26.860Z,9.79
2018-01-11T07:11:55.154Z,9.80
2018-01-11T07:14:23.472Z,9.81
2018-01-11T07:16:51.806Z,9.83
2018-01-11T07:19:20.104Z,9.82
2018-01-11T07:21:48.424Z,9.79
2018-01-11T07:24:16.790Z,9.78
2018-01-11T07:26:45.208Z,9.77
2018-01-11T07:29:13.506Z,9.77
2018-01-11T07:31:42.575Z,9.77
2018-01-11T07:34:10.908Z,9.78
2018-01-11T07:36:39.222Z,9.76
2018-01-11T07:39:07.540Z,9.77
2018-01-11T07:41:36.628Z,9.77
2018-01-11T07:44:05.707Z,9.80
2018-01-11T07:46:34.033Z,9.80
2018-01-11T07:49:02.359Z,9.73
2018-01-11T07:51:30.695Z,9.66
2018-01-11T07:53:59.823Z,9.64
2018-01-11T07:56:28.149Z,9.66
2018-01-11T07:58:56.472Z,9.67
2018-01-11T08:01:24.819Z,9.68
2018-01-11T08:03:53.899Z,9.71
2018-01-11T08:06:22.261Z,9.71
2018-01-11T08:08:50.583Z,9.70
2018-01-11T08:11:18.920Z,9.72
2018-01-11T08:13:47.225Z,9.73
2018-01-11T08:16:15.535Z,9.75
2018-01-11T08:18:44.771Z,9.79
2018-01-11T08:21:13.125Z,9.85
2018-01-11T08:23:42.187Z,9.89
2018-01-11T08:26:10.517Z,9.92
2018-01-11T08:28:38.843Z,9.94
2018-01-11T08:31:07.187Z,9.97
2018-01-11T08:33:35.497Z,10.00
2018-01-11T08:36:03.817Z,10.02
2018-01-11T08:38:32.151Z,10.04
2018-01-11T08:41:00.461Z,10.08
2018-01-11T08:43:28.777Z,10.09
2018-01-11T08:45:57.867Z,10.10
2018-01-11T08:48:26.185Z,10.09
2018-01-11T08:50:54.501Z,10.10
2018-01-11T08:53:22.815Z,10.13
2018-01-11T08:55:51.999Z,10.13
2018-01-11T08:58:20.325Z,10.13
2018-01-11T09:00:48.647Z,10.15
2018-01-11T09:03:16.973Z,10.16
2018-01-11T09:05:46.780Z,10.20
2018-01-11T09:08:15.294Z,10.21
2018-01-11T09:10:43.635Z,10.23
2018-01-11T09:13:11.969Z,10.23
2018-01-11T09:15:40.266Z,10.23
2018-01-11T09:18:08.603Z,10.26
2018-01-11T09:20:38.261Z,10.28
2018-01-11T09:23:07.029Z,10.31
2018-01-11T09:25:35.384Z,10.33
2018-01-11T09:28:04.451Z,10.34
2018-01-11T09:30:32.772Z,10.33
2018-01-11T09:33:01.844Z,10.35
2018-01-11T09:35:30.197Z,10.35
2018-01-11T09:37:58.509Z,10.36
2018-01-11T09:40:26.831Z,10.39
2018-01-11T09:42:55.171Z,10.43
2018-01-11T09:45:23.529Z,10.47
2018-01-11T09:47:51.842Z,10.50
2018-01-11T09:50:20.156Z,10.52
2018-01-11T09:52:48.477Z,10.55
2018-01-11T09:55:16.799Z,10.55
2018-01-11T09:57:45.870Z,10.55
2018-01-11T10:00:14.187Z,10.55
2018-01-11T10:02:43.282Z,10.55
2018-01-11T10:05:13.087Z,10.56
2018-01-11T10:07:41.412Z,10.56
2018-01-11T10:10:09.744Z,10.55
2018-01-11T10:12:38.072Z,10.54
2018-01-11T10:15:06.431Z,10.51
2018-01-11T10:17:34.760Z,10.52
2018-01-11T10:20:03.081Z,10.55
2018-01-11T10:22:31.409Z,10.57
2018-01-11T10:24:59.734Z,10.59
2018-01-11T10:27:28.051Z,10.57
2018-01-11T10:29:56.373Z,10.58
2018-01-11T10:32:24.722Z,10.59
2018-01-11T10:34:53.081Z,10.56
2018-01-11T10:37:22.233Z,10.58
2018-01-11T10:39:50.559Z,10.56
2018-01-11T10:42:19.659Z,10.59
2018-01-11T10:44:48.777Z,10.62
2018-01-11T10:47:17.901Z,10.63
2018-01-11T10:49:46.196Z,10.68
2018-01-11T10:52:14.565Z,10.73
2018-01-11T10:54:42.892Z,10.74
2018-01-11T10:57:11.255Z,10.71
2018-01-11T10:59:39.576Z,10.70
2018-01-11T11:02:14.289Z,10.67
2018-01-11T11:04:43.195Z,10.64
2018-01-11T11:07:13.082Z,10.60
2018-01-11T11:09:41.512Z,10.59
2018-01-11T11:12:09.863Z,10.58
2018-01-11T11:14:38.197Z,10.57
2018-01-11T11:17:06.511Z,10.54
2018-01-11T11:19:34.845Z,10.56
2018-01-11T11:22:03.178Z,10.59
2018-01-11T11:24:31.630Z,10.58
2018-01-11T11:27:00.788Z,10.59
2018-01-11T11:29:30.048Z,10.61
2018-01-11T11:31:59.236Z,10.60
2018-01-11T11:34:27.569Z,10.61
2018-01-11T11:36:55.893Z,10.65
2018-01-11T11:39:24.206Z,10.71
2018-01-11T11:41:52.554Z,10.76
2018-01-11T11:46:54.834Z,10.84
2018-01-11T11:49:23.146Z,10.81
2018-01-11T11:51:51.467Z,10.77
2018-01-11T11:56:54.310Z,10.74
2018-01-11T11:59:22.646Z,10.75
2018-01-11T12:01:51.567Z,10.77
2018-01-11T12:04:20.647Z,10.77
2018-01-11T12:06:48.969Z,10.76
2018-01-11T12:09:17.304Z,10.77
2018-01-11T12:11:45.632Z,10.78
2018-01-11T12:14:13.945Z,10.79
2018-01-11T12:16:42.247Z,10.83
2018-01-11T12:19:10.592Z,10.87
2018-01-11T12:21:38.919Z,10.88
2018-01-11T12:24:07.237Z,10.91
2018-01-11T12:26:35.545Z,10.89
2018-01-11T12:29:03.856Z,10.88
2018-01-11T12:31:32.190Z,10.92
2018-01-11T12:34:00.522Z,10.96
2018-01-11T12:36:28.850Z,10.99
2018-01-11T12:38:57.238Z,10.99
2018-01-11T12:41:25.564Z,10.93
2018-01-11T12:43:53.901Z,10.87
2018-01-11T12:46:22.228Z,10.89
2018-01-11T12:48:50.557Z,10.88
2018-01-11T12:51:18.872Z,10.89
2018-01-11T12:53:47.967Z,10.90
2018-01-11T12:56:16.282Z,10.88
2018-01-11T12:58:44.661Z,10.89
2018-01-11T13:01:13.056Z,10.88
2018-01-11T13:03:41.394Z,10.88
2018-01-11T13:06:09.701Z,10.89
2018-01-11T13:08:38.019Z,10.90
2018-01-11T13:11:07.092Z,10.93
2018-01-11T13:13:35.420Z,10.95
2018-01-11T13:16:03.752Z,10.96
2018-01-11T13:18:32.086Z,10.93
2018-01-11T13:21:00.398Z,10.91
2018-01-11T13:23:28.712Z,10.92
2018-01-11T13:25:57.046Z,10.93
2018-01-11T13:28:25.384Z,10.91
2018-01-11T13:30:54.496Z,10.89
2018-01-11T13:33:22.822Z,10.85
2018-01-11T13:35:51.152Z,10.86
2018-01-11T13:38:20.264Z,10.87
2018-01-11T13:40:48.570Z,10.82
2018-01-11T13:43:16.946Z,10.77
2018-01-11T13:45:45.322Z,10.76
2018-01-11T13:48:13.628Z,10.79
2018-01-11T13:50:41.956Z,10.79
2018-01-11T13:53:10.373Z,10.78
2018-01-11T13:55:38.649Z,10.75
2018-01-11T13:58:06.985Z,10.74
2018-01-11T14:00:35.321Z,10.73
2018-01-11T14:03:04.440Z,10.70
2018-01-11T14:05:32.746Z,10.70
2018-01-11T14:08:01.086Z,10.71
2018-01-11T14:10:29.424Z,10.70
2018-01-11T14:12:57.762Z,10.69
2018-01-11T14:15:26.085Z,10.66
2018-01-11T14:17:54.423Z,10.65
2018-01-11T14:20:22.777Z,10.67
2018-01-11T14:22:51.160Z,10.74
2018-01-11T14:25:19.491Z,10.76
2018-01-11T14:27:47.826Z,10.80
2018-01-11T14:30:16.171Z,10.82
2018-01-11T14:32:44.477Z,10.82
2018-01-11T14:35:13.570Z,10.85
2018-01-11T14:37:42.690Z,10.90
2018-01-11T14:40:11.026Z,10.92
2018-01-11T14:42:39.352Z,10.88
2018-01-11T14:45:07.710Z,10.82
2018-01-11T14:47:36.061Z,10.82
2018-01-11T14:50:04.413Z,10.86
2018-01-11T14:52:32.712Z,10.79
2018-01-11T14:55:01.029Z,10.77
2018-01-11T14:57:29.368Z,10.77
2018-01-11T14:59:57.693Z,10.80
2018-01-11T15:02:26.066Z,10.78
2018-01-11T15:04:54.418Z,10.76
2018-01-11T15:07:22.756Z,10.75
2018-01-11T15:09:51.105Z,10.76
2018-01-11T15:12:19.416Z,10.76
2018-01-11T15:14:47.752Z,10.78
2018-01-11T15:17:16.162Z,10.76
2018-01-11T15:19:44.504Z,10.73
2018-01-11T15:22:12.822Z,10.72
2018-01-11T15:24:41.138Z,10.69
2018-01-11T15:27:10.225Z,10.64
2018-01-11T15:29:38.666Z,10.61
2018-01-11T15:32:06.990Z,10.63
2018-01-11T15:34:35.324Z,10.62
2018-01-11T15:37:03.641Z,10.61
2018-01-11T15:39:32.010Z,10.59
2018-01-11T15:42:00.326Z,10.62
2018-01-11T15:44:28.654Z,10.61
2018-01-11T15:46:56.986Z,10.58
2018-01-11T15:49:25.304Z,10.55
2018-01-11T15:51:53.623Z,10.53
2018-01-11T15:54:21.941Z,10.52
2018-01-11T15:56:51.018Z,10.52
2018-01-11T15:59:19.332Z,10.49
2018-01-11T16:01:47.752Z,10.44
2018-01-11T16:04:16.096Z,10.39
2018-01-11T16:06:45.255Z,10.34
2018-01-11T16:09:13.570Z,10.30
2018-01-11T16:11:42.669Z,10.24
2018-01-11T16:14:11.758Z,10.21
2018-01-11T16:16:40.151Z,10.18
2018-01-11T16:19:08.507Z,10.15
2018-01-11T16:21:36.952Z,10.10
2018-01-11T16:24:05.297Z,10.07
2018-01-11T16:26:33.610Z,10.08
2018-01-11T16:29:01.930Z,10.13
2018-01-11T16:31:30.264Z,10.15
2018-01-11T16:33:58.582Z,10.11
2018-01-11T16:36:26.928Z,10.05
2018-01-11T16:38:55.243Z,10.01
2018-01-11T16:41:23.576Z,10.03
2018-01-11T16:43:52.679Z,10.02
2018-01-11T16:46:22.512Z,10.02
2018-01-11T16:48:50.851Z,9.99
2018-01-11T16:51:19.185Z,9.91
2018-01-11T16:53:47.491Z,9.85
2018-01-11T16:56:15.800Z,9.88
2018-01-11T16:58:44.144Z,9.92
2018-01-11T17:01:12.445Z,9.96
2018-01-11T17:03:40.766Z,9.97
2018-01-11T17:06:09.880Z,9.98
2018-01-11T17:08:38.216Z,9.96
2018-01-11T17:11:06.650Z,9.93
2018-01-11T17:13:34.974Z,9.91
2018-01-11T17:16:03.306Z,9.89
2018-01-11T17:18:31.624Z,9.88
2018-01-11T17:20:59.938Z,9.89
2018-01-11T17:23:28.250Z,9.87
2018-01-11T17:25:57.335Z,9.87
2018-01-11T17:28:26.426Z,9.87
2018-01-11T17:30:54.754Z,9.85
2018-01-11T17:33:23.062Z,9.84
2018-01-11T17:35:51.397Z,9.83
2018-01-11T17:38:19.749Z,9.83
2018-01-11T17:40:48.093Z,9.80
2018-01-11T17:43:16.396Z,9.73
2018-01-11T17:45:44.709Z,9.68
2018-01-11T17:48:13.772Z,9.65
2018-01-11T17:50:42.141Z,9.61
2018-01-11T17:53:10.579Z,9.58
2018-01-11T17:55:39.713Z,9.57
2018-01-11T17:58:08.077Z,9.52
2018-01-11T18:00:36.385Z,9.47
2018-01-11T18:03:04.703Z,9.42
2018-01-11T18:05:33.035Z,9.46
2018-01-11T18:08:01.386Z,9.54
2018-01-11T18:10:30.525Z,9.59
2018-01-11T18:12:58.865Z,9.61
2018-01-11T18:15:27.966Z,9.66
2018-01-11T18:17:57.135Z,9.68
2018-01-11T18:20:25.482Z,9.68
2018-01-11T18:22:54.548Z,9.68
2018-01-11T18:25:22.869Z,9.68
2018-01-11T18:27:51.212Z,9.67
2018-01-11T18:30:20.294Z,9.65
2018-01-11T18:32:48.607Z,9.59
2018-01-11T18:35:16.942Z,9.53
2018-01-11T18:37:45.249Z,9.51
2018-01-11T18:40:13.562Z,9.53
2018-01-11T18:42:41.906Z,9.59
2018-01-11T18:45:11.005Z,9.59
2018-01-11T18:47:39.315Z,9.56
2018-01-11T18:50:08.399Z,9.51
2018-01-11T18:52:37.476Z,9.49
2018-01-11T18:55:05.780Z,9.49
2018-01-11T18:57:34.857Z,9.48
2018-01-11T19:00:03.192Z,9.44
2018-01-11T19:02:31.531Z,9.46
2018-01-11T19:04:59.857Z,9.43
2018-01-11T19:07:28.213Z,9.43
2018-01-11T19:09:57.325Z,9.41
2018-01-11T19:12:25.649Z,9.40
2018-01-11T19:14:53.965Z,9.40
2018-01-11T19:17:23.056Z,9.40
2018-01-11T19:19:51.493Z,9.42
2018-01-11T19:22:19.796Z,9.43
2018-01-11T19:24:48.110Z,9.45
2018-01-11T19:27:16.419Z,9.50
2018-01-11T19:29:44.752Z,9.51
2018-01-11T19:32:13.053Z,9.50
2018-01-11T19:34:41.384Z,9.47
2018-01-11T19:37:09.723Z,9.44
2018-01-11T19:39:38.055Z,9.42
2018-01-11T19:42:06.386Z,9.41
2018-01-11T19:44:34.699Z,9.47
2018-01-11T19:47:03.010Z,9.49
2018-01-11T19:49:31.312Z,9.48
2018-01-11T19:51:59.677Z,9.50
2018-01-11T19:54:28.813Z,9.50
2018-01-11T19:56:57.130Z,9.50
2018-01-11T19:59:25.455Z,9.46
2018-01-11T20:01:53.800Z,9.45
2018-01-11T20:04:22.144Z,9.44
2018-01-11T20:06:50.515Z,9.47
2018-01-11T20:09:18.917Z,9.52
2018-01-11T20:11:47.373Z,9.52
2018-01-11T20:14:15.687Z,9.49
2018-01-11T20:16:44.788Z,9.45
2018-01-11T20:19:13.877Z,9.40
2018-01-11T20:21:42.960Z,9.36
2018-01-11T20:24:11.264Z,9.37
2018-01-11T20:26:40.361Z,9.36
2018-01-11T20:29:09.430Z,9.29
2018-01-11T20:31:37.758Z,9.26
2018-01-11T20:34:06.861Z,9.25
2018-01-11T20:36:35.163Z,9.31
2018-01-11T20:39:03.629Z,9.37
2018-01-11T20:41:31.930Z,9.37
2018-01-11T20:44:00.241Z,9.37
2018-01-11T20:46:28.565Z,9.36
2018-01-11T20:48:57.631Z,9.38
2018-01-11T20:51:25.921Z,9.42
2018-01-11T20:53:54.244Z,9.43
2018-01-11T20:56:22.543Z,9.42
2018-01-11T20:58:50.845Z,9.42
2018-01-11T21:01:19.155Z,9.39
2018-01-11T21:03:48.219Z,9.41
2018-01-11T21:06:17.297Z,9.42
2018-01-11T21:08:45.618Z,9.41
2018-01-11T21:11:13.978Z,9.45
2018-01-11T21:13:42.299Z,9.49
2018-01-11T21:16:11.424Z,9.50
2018-01-11T21:18:39.711Z,9.50
2018-01-11T21:21:08.018Z,9.48
2018-01-11T21:23:36.334Z,9.46
2018-01-11T21:26:04.639Z,9.46
2018-01-11T21:28:33.732Z,9.46
2018-01-11T21:31:02.786Z,9.47
2018-01-11T21:33:31.084Z,9.52
2018-01-11T21:35:59.393Z,9.51
2018-01-11T21:38:28.469Z,9.52
2018-01-11T21:40:56.760Z,9.54
2018-01-11T21:43:25.073Z,9.57
2018-01-11T21:45:53.367Z,9.61
2018-01-11T21:48:21.693Z,9.61
2018-01-11T21:50:50.001Z,9.58
2018-01-11T21:53:19.079Z,9.59
2018-01-11T21:55:47.377Z,9.58
2018-01-11T21:58:16.429Z,9.60
2018-01-11T22:00:44.745Z,9.61
2018-01-11T22:03:13.057Z,9.58
2018-01-11T22:05:41.371Z,9.54
2018-01-11T22:08:09.677Z,9.50
2018-01-11T22:10:37.993Z,9.45
2018-01-11T22:13:07.045Z,9.41
2018-01-11T22:15:35.437Z,9.39
2018-01-11T22:18:03.737Z,9.40
2018-01-11T22:20:32.822Z,9.41
2018-01-11T22:23:01.257Z,9.39
2018-01-11T22:25:30.427Z,9.40
2018-01-11T22:27:58.753Z,9.43
2018-01-11T22:30:27.127Z,9.46
2018-01-11T22:32:55.437Z,9.49
2018-01-11T22:35:23.740Z,9.50
2018-01-11T22:37:52.056Z,9.54
2018-01-11T22:40:20.403Z,9.55
2018-01-11T22:42:49.474Z,9.55
2018-01-11T22:45:17.780Z,9.56
2018-01-11T22:47:46.116Z,9.60
2018-01-11T22:50:14.431Z,9.58
2018-01-11T22:52:42.742Z,9.60
2018-01-11T22:55:11.041Z,9.62
2018-01-11T22:57:39.398Z,9.62
2018-01-11T23:00:09.378Z,9.63
2018-01-11T23:02:37.671Z,9.61
2018-01-11T23:05:05.976Z,9.55
2018-01-11T23:07:35.059Z,9.46
2018-01-11T23:10:03.452Z,9.40
2018-01-11T23:12:32.533Z,9.36
2018-01-11T23:15:00.835Z,9.35
2018-01-11T23:17:29.136Z,9.32
2018-01-11T23:19:58.216Z,9.25
2018-01-11T23:22:26.532Z,9.20
2018-01-11T23:24:54.920Z,9.18
2018-01-11T23:27:23.247Z,9.20
2018-01-11T23:29:51.563Z,9.20
2018-01-11T23:32:19.909Z,9.24
2018-01-11T23:34:48.208Z,9.28
2018-01-11T23:37:17.188Z,9.33
2018-01-11T23:39:45.487Z,9.37
2018-01-11T23:42:13.798Z,9.41
2018-01-11T23:44:42.864Z,9.44
2018-01-11T23:47:11.942Z,9.42
2018-01-11T23:49:40.271Z,9.40
2018-01-11T23:52:09.376Z,9.40
2018-01-11T23:54:38.442Z,9.37
2018-01-11T23:57:08.252Z,9.33
2018-01-11T23:59:36.577Z,9.23
